Time;durP1;ratioP1;P1;durP2;ratioP2;P2;SDS_P1;SDS_P2;PMS_P1;PMS_P2;Temp;Humidity;BMP_temperature;BMP_pressure;BME280_temperature;BME280_humidity;BME280_pressure;Samples;Min_cycle;Max_cycle;Signal;HPM_P1;HPM_P2
2022/04/16 00:00:30;;;;;;;3.83;1.33;;;;;;;;;;5040514;28;20060;-60
2022/04/16 00:02:57;;;;;;;3.55;1.30;;;;;;;;;;5041695;28;20087;-60
2022/04/16 00:05:24;;;;;;;3.05;1.20;;;;;;;;;;5042377;28;20077;-58
2022/04/16 00:08:06;;;;;;;3.60;1.15;;;;;;;;;;5043659;28;20038;-60
2022/04/16 00:10:37;;;;;;;2.65;1.10;;;;;;;;;;5041660;28;20048;-59
2022/04/16 00:13:03;;;;;;;3.53;1.40;;;;;;;;;;5042586;28;20511;-60
2022/04/16 00:15:31;;;;;;;4.55;1.25;;;;;;;;;;5040607;28;20037;-59
2022/04/16 00:17:58;;;;;;;3.15;1.30;;;;;;;;;;5040640;28;20148;-58
2022/04/16 00:20:26;;;;;;;3.58;1.23;;;;;;;;;;5041798;28;20423;-59
2022/04/16 00:22:53;;;;;;;4.93;1.60;;;;;;;;;;5041101;28;20076;-59
2022/04/16 00:25:20;;;;;;;4.60;1.33;;;;;;;;;;5041932;28;20068;-60
2022/04/16 00:27:47;;;;;;;3.35;1.17;;;;;;;;;;5040196;28;20120;-60
2022/04/16 00:30:17;;;;;;;3.22;1.33;;;;;;;;;;5041301;28;20128;-60
2022/04/16 00:32:44;;;;;;;3.55;1.42;;;;;;;;;;5041137;28;20416;-60
2022/04/16 00:35:13;;;;;;;3.15;1.30;;;;;;;;;;5040266;28;20477;-59
2022/04/16 00:37:39;;;;;;;3.65;1.55;;;;;;;;;;5038961;28;20552;-60
2022/04/16 00:40:07;;;;;;;4.55;1.42;;;;;;;;;;5040698;28;20045;-60
2022/04/16 00:42:46;;;;;;;3.83;1.23;;;;;;;;;;5038954;28;20132;-60
2022/04/16 00:45:15;;;;;;;3.17;1.27;;;;;;;;;;5040744;28;20053;-60
2022/04/16 00:47:45;;;;;;;3.75;1.20;;;;;;;;;;5034472;28;20040;-60
2022/04/16 00:50:13;;;;;;;4.07;1.52;;;;;;;;;;5042148;28;20045;-59
2022/04/16 00:52:40;;;;;;;4.32;1.55;;;;;;;;;;5039443;28;20038;-60
2022/04/16 00:55:08;;;;;;;3.50;1.27;;;;;;;;;;5040696;28;20040;-60
2022/04/16 00:57:39;;;;;;;2.88;1.20;;;;;;;;;;5040420;28;20125;-60
2022/04/16 01:00:07;;;;;;;3.65;1.50;;;;;;;;;;5040165;28;20044;-60
2022/04/16 01:02:37;;;;;;;4.25;1.30;;;;;;;;;;5039827;28;20037;-59
2022/04/16 01:05:05;;;;;;;3.35;1.42;;;;;;;;;;5041439;28;20098;-59
2022/04/16 01:07:32;;;;;;;5.32;1.38;;;;;;;;;;5041027;28;20068;-60
2022/04/16 01:09:58;;;;;;;7.65;1.48;;;;;;;;;;5039736;28;20053;-59
2022/04/16 01:12:26;;;;;;;3.38;1.40;;;;;;;;;;5039180;28;20060;-60
2022/04/16 01:14:53;;;;;;;4.72;1.80;;;;;;;;;;5041114;28;20440;-58
2022/04/16 01:17:19;;;;;;;3.95;1.48;;;;;;;;;;5040152;28;20041;-60
2022/04/16 01:19:47;;;;;;;3.20;1.30;;;;;;;;;;5039816;28;20049;-60
2022/04/16 01:22:15;;;;;;;4.40;1.33;;;;;;;;;;5040796;28;20468;-60
2022/04/16 01:24:48;;;;;;;4.03;1.40;;;;;;;;;;5039889;28;20049;-60
2022/04/16 01:27:15;;;;;;;7.78;1.70;;;;;;;;;;5039899;28;20082;-61
2022/04/16 01:29:44;;;;;;;3.10;1.30;;;;;;;;;;5040661;28;20051;-61
2022/04/16 01:32:10;;;;;;;3.75;1.33;;;;;;;;;;5039901;28;20047;-60
2022/04/16 01:34:37;;;;;;;4.25;1.73;;;;;;;;;;5038578;28;20072;-60
2022/04/16 01:37:04;;;;;;;4.13;1.80;;;;;;;;;;5038916;28;20033;-61
2022/04/16 01:39:31;;;;;;;4.70;1.55;;;;;;;;;;5040050;28;20083;-59
2022/04/16 01:41:58;;;;;;;3.83;1.60;;;;;;;;;;5041264;28;20045;-60
2022/04/16 01:44:26;;;;;;;5.68;1.50;;;;;;;;;;5041055;28;20503;-60
2022/04/16 01:46:53;;;;;;;4.32;1.60;;;;;;;;;;5040593;28;20033;-58
2022/04/16 01:49:22;;;;;;;5.45;1.95;;;;;;;;;;5039412;28;20054;-62
2022/04/16 01:51:49;;;;;;;4.82;1.60;;;;;;;;;;5038363;28;20044;-61
2022/04/16 01:54:16;;;;;;;4.55;1.63;;;;;;;;;;5039626;28;20111;-61
2022/04/16 01:56:43;;;;;;;4.13;1.52;;;;;;;;;;5039202;28;20049;-62
2022/04/16 01:59:09;;;;;;;6.50;1.38;;;;;;;;;;5021422;28;20065;-61
2022/04/16 02:01:36;;;;;;;2.90;1.15;;;;;;;;;;5022318;28;20036;-62
2022/04/16 02:04:03;;;;;;;3.90;1.50;;;;;;;;;;5039931;28;20124;-60
2022/04/16 02:06:29;;;;;;;4.15;1.63;;;;;;;;;;5039762;28;20509;-61
2022/04/16 02:08:56;;;;;;;4.03;1.48;;;;;;;;;;5039004;28;20132;-61
2022/04/16 02:11:23;;;;;;;3.53;1.23;;;;;;;;;;5038532;28;20041;-60
2022/04/16 02:13:50;;;;;;;3.60;1.50;;;;;;;;;;5039842;28;20674;-63
2022/04/16 02:16:16;;;;;;;8.20;1.83;;;;;;;;;;5039050;28;20064;-61
2022/04/16 02:18:43;;;;;;;5.18;1.27;;;;;;;;;;5039537;28;20053;-59
2022/04/16 02:21:10;;;;;;;2.95;1.10;;;;;;;;;;5038825;28;20442;-61
2022/04/16 02:23:37;;;;;;;4.15;1.58;;;;;;;;;;5038421;28;20044;-61
2022/04/16 02:26:06;;;;;;;3.05;1.42;;;;;;;;;;5038744;28;20037;-61
2022/04/16 02:28:34;;;;;;;4.40;1.20;;;;;;;;;;5038271;28;20040;-61
2022/04/16 02:31:01;;;;;;;3.65;1.30;;;;;;;;;;5040349;28;20069;-61
2022/04/16 02:33:27;;;;;;;3.38;1.38;;;;;;;;;;5038037;28;20137;-61
2022/04/16 02:35:54;;;;;;;4.13;1.60;;;;;;;;;;5037196;28;20052;-62
2022/04/16 02:38:21;;;;;;;3.47;1.42;;;;;;;;;;5017660;28;20045;-61
2022/04/16 02:40:48;;;;;;;3.92;1.50;;;;;;;;;;5039293;28;21633;-60
2022/04/16 02:43:14;;;;;;;3.95;1.20;;;;;;;;;;5037840;28;20516;-60
2022/04/16 02:48:48;;;;;;;5.93;1.88;;;;;;;;;;4979841;28;20050;-60
2022/04/16 02:51:15;;;;;;;7.95;1.67;;;;;;;;;;4979130;28;20495;-60
2022/04/16 02:53:41;;;;;;;4.13;1.20;;;;;;;;;;5007596;28;20037;-60
2022/04/16 02:56:08;;;;;;;6.00;1.67;;;;;;;;;;5038737;28;20033;-62
2022/04/16 02:58:35;;;;;;;3.60;1.50;;;;;;;;;;5042636;28;20036;-62
2022/04/16 03:01:01;;;;;;;3.80;1.60;;;;;;;;;;5043373;28;20093;-59
2022/04/16 03:03:29;;;;;;;3.50;1.50;;;;;;;;;;5042006;28;20493;-61
2022/04/16 03:05:55;;;;;;;3.50;1.30;;;;;;;;;;5041271;28;20089;-61
2022/04/16 03:08:24;;;;;;;4.35;1.55;;;;;;;;;;5042256;28;20039;-61
2022/04/16 03:10:51;;;;;;;6.07;2.03;;;;;;;;;;5042186;28;20525;-59
2022/04/16 03:13:18;;;;;;;4.13;1.95;;;;;;;;;;5042598;28;20501;-60
2022/04/16 03:18:30;;;;;;;5.00;1.80;;;;;;;;;;5043321;28;20063;-62
2022/04/16 03:20:58;;;;;;;4.97;2.08;;;;;;;;;;5043516;28;20040;-61
2022/04/16 03:23:25;;;;;;;11.55;1.83;;;;;;;;;;5042053;28;20032;-61
2022/04/16 03:25:53;;;;;;;4.32;1.70;;;;;;;;;;5041865;28;20086;-60
2022/04/16 03:28:20;;;;;;;4.53;1.85;;;;;;;;;;5042952;28;20127;-61
2022/04/16 03:30:47;;;;;;;4.30;1.83;;;;;;;;;;5041299;28;20050;-61
2022/04/16 03:33:14;;;;;;;4.88;2.10;;;;;;;;;;5042182;28;21166;-58
2022/04/16 03:35:40;;;;;;;8.02;3.67;;;;;;;;;;5040052;28;20510;-59
2022/04/16 03:38:07;;;;;;;6.63;2.38;;;;;;;;;;5041625;28;20037;-59
2022/04/16 03:40:34;;;;;;;4.75;1.88;;;;;;;;;;5041512;28;20132;-62
2022/04/16 03:43:01;;;;;;;5.03;2.10;;;;;;;;;;5042792;28;20049;-61
2022/04/16 03:45:32;;;;;;;3.40;1.70;;;;;;;;;;5042517;28;20032;-61
2022/04/16 03:47:59;;;;;;;5.68;2.10;;;;;;;;;;5042942;28;20064;-61
2022/04/16 03:50:27;;;;;;;4.07;1.77;;;;;;;;;;5040946;28;20049;-60
2022/04/16 03:52:55;;;;;;;6.70;2.60;;;;;;;;;;5043004;28;20044;-59
2022/04/16 04:01:00;;;;;;;4.60;1.45;;;;;;;;;;5042263;28;20044;-58
2022/04/16 04:03:27;;;;;;;6.25;1.80;;;;;;;;;;5040310;28;20044;-57
2022/04/16 04:05:54;;;;;;;4.28;1.60;;;;;;;;;;5041944;28;20037;-60
2022/04/16 04:08:22;;;;;;;5.78;2.05;;;;;;;;;;5041899;28;20870;-59
2022/04/16 04:10:49;;;;;;;5.00;1.60;;;;;;;;;;5021726;28;20049;-58
2022/04/16 04:13:17;;;;;;;3.92;1.65;;;;;;;;;;5042408;28;20418;-59
2022/04/16 04:15:43;;;;;;;6.15;2.10;;;;;;;;;;5041701;28;20048;-59
2022/04/16 04:18:10;;;;;;;6.80;1.63;;;;;;;;;;5041703;28;20053;-60
2022/04/16 04:20:37;;;;;;;3.78;1.92;;;;;;;;;;5041607;28;20036;-59
2022/04/16 04:23:04;;;;;;;6.38;1.45;;;;;;;;;;5041965;28;20041;-59
2022/04/16 04:25:31;;;;;;;3.00;1.40;;;;;;;;;;5042593;28;20097;-59
2022/04/16 04:27:58;;;;;;;6.40;1.83;;;;;;;;;;5043610;28;20572;-59
2022/04/16 04:30:25;;;;;;;4.90;1.60;;;;;;;;;;5042200;28;20153;-57
2022/04/16 04:32:56;;;;;;;4.25;1.92;;;;;;;;;;5041713;28;20045;-59
2022/04/16 04:35:23;;;;;;;4.07;1.70;;;;;;;;;;5041273;28;20042;-60
2022/04/16 04:37:50;;;;;;;4.57;1.77;;;;;;;;;;5042278;28;20045;-59
2022/04/16 04:40:17;;;;;;;4.13;1.90;;;;;;;;;;5043136;28;20048;-60
2022/04/16 04:42:43;;;;;;;4.88;1.90;;;;;;;;;;5041421;28;20643;-58
2022/04/16 04:45:11;;;;;;;5.28;1.50;;;;;;;;;;5041892;28;20041;-59
2022/04/16 04:47:38;;;;;;;5.60;1.80;;;;;;;;;;5037789;28;20444;-59
2022/04/16 04:50:06;;;;;;;4.00;1.70;;;;;;;;;;5042402;28;20442;-57
2022/04/16 04:52:32;;;;;;;4.68;1.95;;;;;;;;;;5040428;28;20043;-60
2022/04/16 04:55:00;;;;;;;4.30;1.65;;;;;;;;;;5042352;28;20076;-59
2022/04/16 04:57:27;;;;;;;3.50;1.52;;;;;;;;;;5041189;28;20120;-59
2022/04/16 04:59:54;;;;;;;5.82;1.83;;;;;;;;;;5042074;28;20074;-61
2022/04/16 05:02:21;;;;;;;6.20;1.85;;;;;;;;;;5040966;28;20815;-59
2022/04/16 05:04:48;;;;;;;7.40;2.17;;;;;;;;;;5041926;28;20041;-61
2022/04/16 05:07:14;;;;;;;4.38;1.80;;;;;;;;;;5040921;28;20047;-60
2022/04/16 05:09:41;;;;;;;4.45;1.60;;;;;;;;;;5040045;28;20053;-60
2022/04/16 05:12:08;;;;;;;3.67;1.55;;;;;;;;;;5041725;28;20036;-61
2022/04/16 05:14:35;;;;;;;4.47;1.73;;;;;;;;;;5042687;28;20037;-60
2022/04/16 05:17:01;;;;;;;4.80;1.73;;;;;;;;;;5040779;28;20060;-61
2022/04/16 05:19:29;;;;;;;6.57;1.58;;;;;;;;;;5040316;28;20125;-61
2022/04/16 05:21:56;;;;;;;4.38;1.65;;;;;;;;;;5039580;28;20420;-61
2022/04/16 05:24:23;;;;;;;3.55;1.50;;;;;;;;;;5041451;28;20536;-59
2022/04/16 05:26:49;;;;;;;4.80;1.92;;;;;;;;;;5041336;28;20045;-60
2022/04/16 05:29:17;;;;;;;4.07;1.52;;;;;;;;;;5040739;28;20111;-59
2022/04/16 05:31:44;;;;;;;4.03;1.40;;;;;;;;;;5038635;28;20053;-59
2022/04/16 05:34:20;;;;;;;3.58;1.50;;;;;;;;;;5022112;28;20037;-59
2022/04/16 05:36:48;;;;;;;3.55;1.40;;;;;;;;;;5039593;28;20036;-62
2022/04/16 05:39:15;;;;;;;3.63;1.50;;;;;;;;;;5040136;28;20037;-60
2022/04/16 05:41:42;;;;;;;7.60;1.75;;;;;;;;;;5041071;28;20125;-62
2022/04/16 05:44:08;;;;;;;6.28;1.55;;;;;;;;;;5040504;28;20041;-61
2022/04/16 05:46:35;;;;;;;4.15;1.50;;;;;;;;;;5038306;28;20072;-59
2022/04/16 05:49:02;;;;;;;3.45;1.40;;;;;;;;;;5038221;28;20113;-61
2022/04/16 05:51:28;;;;;;;7.22;1.52;;;;;;;;;;5038610;28;20112;-59
2022/04/16 05:53:55;;;;;;;4.28;1.42;;;;;;;;;;5041140;28;20040;-60
2022/04/16 05:56:22;;;;;;;4.20;1.60;;;;;;;;;;5039467;28;20098;-59
2022/04/16 05:58:49;;;;;;;4.93;1.50;;;;;;;;;;5042436;28;20417;-59
2022/04/16 06:01:16;;;;;;;5.97;1.55;;;;;;;;;;5040639;28;20495;-61
2022/04/16 06:03:43;;;;;;;4.38;1.50;;;;;;;;;;5040650;28;20481;-59
2022/04/16 06:06:10;;;;;;;3.22;1.27;;;;;;;;;;5040120;28;20041;-60
2022/04/16 06:08:37;;;;;;;3.22;1.63;;;;;;;;;;5038790;28;20259;-60
2022/04/16 06:11:05;;;;;;;3.17;1.13;;;;;;;;;;5041244;28;20049;-59
2022/04/16 06:13:32;;;;;;;3.88;1.42;;;;;;;;;;5040053;28;20513;-62
2022/04/16 06:15:59;;;;;;;5.07;1.65;;;;;;;;;;5040344;28;20049;-60
2022/04/16 06:18:26;;;;;;;3.38;1.40;;;;;;;;;;5039659;28;20072;-60
2022/04/16 06:20:53;;;;;;;4.28;1.67;;;;;;;;;;5042816;28;20043;-59
2022/04/16 06:23:23;;;;;;;4.50;1.70;;;;;;;;;;5042933;28;20048;-60
2022/04/16 06:25:49;;;;;;;4.35;1.50;;;;;;;;;;5041576;28;20888;-60
2022/04/16 06:28:16;;;;;;;4.70;1.52;;;;;;;;;;5042745;28;20056;-60
2022/04/16 06:30:43;;;;;;;3.92;1.40;;;;;;;;;;5040208;28;20048;-60
2022/04/16 06:33:10;;;;;;;6.43;1.38;;;;;;;;;;5044455;28;20691;-60
2022/04/16 06:35:36;;;;;;;5.75;1.67;;;;;;;;;;5044311;28;20029;-59
2022/04/16 06:38:03;;;;;;;3.40;1.50;;;;;;;;;;5046414;28;20045;-59
2022/04/16 06:40:30;;;;;;;3.75;1.35;;;;;;;;;;5046201;28;20044;-60
2022/04/16 06:42:56;;;;;;;4.95;1.52;;;;;;;;;;5045673;28;20038;-60
2022/04/16 06:45:23;;;;;;;6.03;1.50;;;;;;;;;;5045464;28;20051;-61
2022/04/16 06:47:50;;;;;;;4.20;1.30;;;;;;;;;;5045394;28;20053;-63
2022/04/16 06:50:16;;;;;;;5.95;1.48;;;;;;;;;;5046152;28;20056;-61
2022/04/16 06:52:43;;;;;;;3.63;1.30;;;;;;;;;;5045442;28;20162;-58
2022/04/16 06:55:10;;;;;;;6.95;1.30;;;;;;;;;;5045373;28;20041;-60
2022/04/16 06:57:37;;;;;;;4.63;1.38;;;;;;;;;;5046879;28;20544;-60
2022/04/16 07:00:07;;;;;;;2.75;1.20;;;;;;;;;;5023927;28;20045;-60
2022/04/16 07:02:34;;;;;;;3.90;1.48;;;;;;;;;;5044904;28;20051;-60
2022/04/16 07:05:02;;;;;;;4.00;1.38;;;;;;;;;;5026958;28;20036;-59
2022/04/16 07:07:29;;;;;;;5.43;1.60;;;;;;;;;;5043368;28;20044;-58
2022/04/16 07:09:56;;;;;;;3.70;1.42;;;;;;;;;;5045493;28;20467;-60
2022/04/16 07:12:23;;;;;;;5.07;1.63;;;;;;;;;;5044093;28;20043;-59
2022/04/16 07:14:50;;;;;;;4.30;1.55;;;;;;;;;;5045334;28;20509;-60
2022/04/16 07:17:16;;;;;;;4.10;1.60;;;;;;;;;;5044788;28;20067;-59
2022/04/16 07:19:43;;;;;;;3.40;1.63;;;;;;;;;;5042149;28;20551;-59
2022/04/16 07:22:10;;;;;;;3.75;1.40;;;;;;;;;;5041810;28;20036;-58
2022/04/16 07:24:42;;;;;;;6.70;1.52;;;;;;;;;;5022357;28;20575;-61
2022/04/16 07:27:09;;;;;;;3.95;1.50;;;;;;;;;;5041816;28;20214;-60
2022/04/16 07:29:35;;;;;;;3.53;1.60;;;;;;;;;;5040969;28;20563;-60
2022/04/16 07:32:02;;;;;;;4.00;1.58;;;;;;;;;;5041358;28;20209;-57
2022/04/16 07:34:29;;;;;;;3.13;1.20;;;;;;;;;;5041236;28;20045;-59
2022/04/16 07:36:55;;;;;;;3.75;1.70;;;;;;;;;;5041408;28;20037;-59
2022/04/16 07:39:22;;;;;;;5.72;1.70;;;;;;;;;;5041650;28;20032;-60
2022/04/16 07:41:51;;;;;;;3.45;1.30;;;;;;;;;;5040969;28;20058;-59
2022/04/16 07:44:18;;;;;;;3.40;1.40;;;;;;;;;;5041945;28;20057;-59
2022/04/16 07:46:45;;;;;;;3.63;1.38;;;;;;;;;;5036865;28;20041;-59
2022/04/16 07:49:11;;;;;;;4.97;1.70;;;;;;;;;;5042676;28;20052;-58
2022/04/16 07:51:38;;;;;;;4.28;1.38;;;;;;;;;;5041767;28;20049;-57
2022/04/16 07:54:05;;;;;;;3.00;1.23;;;;;;;;;;5042531;28;20051;-60
2022/04/16 07:56:31;;;;;;;3.67;1.38;;;;;;;;;;5040719;28;20112;-60
2022/04/16 07:58:58;;;;;;;3.65;1.50;;;;;;;;;;5042508;28;20099;-59
2022/04/16 08:01:25;;;;;;;5.40;1.67;;;;;;;;;;5041627;28;20116;-59
2022/04/16 08:03:52;;;;;;;3.90;1.52;;;;;;;;;;5042346;28;20060;-60
2022/04/16 08:06:18;;;;;;;4.65;1.55;;;;;;;;;;5042814;28;20052;-60
2022/04/16 08:08:45;;;;;;;4.72;1.88;;;;;;;;;;5042220;28;20037;-59
2022/04/16 08:11:12;;;;;;;3.15;1.45;;;;;;;;;;5041268;28;20057;-59
2022/04/16 08:13:39;;;;;;;4.68;1.77;;;;;;;;;;5041593;28;20041;-59
2022/04/16 08:16:06;;;;;;;3.85;1.30;;;;;;;;;;5041579;28;20036;-60
2022/04/16 08:18:32;;;;;;;4.97;1.73;;;;;;;;;;5040970;28;20447;-60
2022/04/16 08:20:59;;;;;;;3.85;1.58;;;;;;;;;;5041057;28;20052;-61
2022/04/16 08:23:26;;;;;;;3.05;1.30;;;;;;;;;;5039571;28;20366;-60
2022/04/16 08:25:53;;;;;;;3.60;1.58;;;;;;;;;;5039721;28;20935;-60
2022/04/16 08:28:20;;;;;;;4.45;1.90;;;;;;;;;;5041147;28;20036;-61
2022/04/16 08:30:46;;;;;;;2.90;1.35;;;;;;;;;;5040868;28;20076;-61
2022/04/16 08:33:14;;;;;;;4.57;1.60;;;;;;;;;;5041058;28;20447;-61
2022/04/16 08:35:43;;;;;;;3.92;1.90;;;;;;;;;;5039690;28;20041;-61
2022/04/16 08:38:10;;;;;;;3.80;1.83;;;;;;;;;;5042304;28;20405;-60
2022/04/16 08:40:37;;;;;;;4.40;1.80;;;;;;;;;;5040491;28;20039;-61
2022/04/16 08:43:05;;;;;;;4.47;1.83;;;;;;;;;;5041014;28;20044;-59
2022/04/16 08:45:32;;;;;;;12.88;2.28;;;;;;;;;;5040238;28;20052;-60
2022/04/16 08:47:59;;;;;;;3.47;1.67;;;;;;;;;;5022409;28;22393;-60
2022/04/16 08:50:26;;;;;;;3.50;1.75;;;;;;;;;;5040189;28;20052;-60
2022/04/16 08:52:53;;;;;;;4.25;1.83;;;;;;;;;;5040331;28;20123;-59
2022/04/16 08:55:19;;;;;;;4.40;1.88;;;;;;;;;;5041655;28;20048;-60
2022/04/16 08:57:46;;;;;;;6.22;1.70;;;;;;;;;;5041178;28;20500;-60
2022/04/16 09:00:13;;;;;;;4.03;1.63;;;;;;;;;;5040434;28;20048;-59
2022/04/16 09:02:50;;;;;;;5.03;2.03;;;;;;;;;;5039229;28;20029;-61
2022/04/16 09:05:18;;;;;;;3.97;1.88;;;;;;;;;;5039696;28;20052;-61
2022/04/16 09:07:49;;;;;;;5.65;1.80;;;;;;;;;;5040254;28;20159;-61
2022/04/16 09:10:17;;;;;;;3.58;1.75;;;;;;;;;;5042016;28;20082;-58
2022/04/16 09:12:45;;;;;;;4.07;2.03;;;;;;;;;;5039399;28;20041;-60
2022/04/16 09:15:15;;;;;;;3.75;1.40;;;;;;;;;;5040182;28;20382;-59
2022/04/16 09:17:42;;;;;;;11.32;2.17;;;;;;;;;;5040173;28;20056;-59
2022/04/16 09:20:13;;;;;;;7.75;2.17;;;;;;;;;;5040948;28;20803;-60
2022/04/16 09:22:40;;;;;;;3.58;1.67;;;;;;;;;;5033314;28;20097;-57
2022/04/16 09:25:18;;;;;;;4.78;2.08;;;;;;;;;;5040144;28;20049;-60
2022/04/16 09:27:52;;;;;;;5.45;2.13;;;;;;;;;;5039602;28;20097;-61
2022/04/16 09:30:29;;;;;;;16.48;2.38;;;;;;;;;;5041911;28;20048;-61
2022/04/16 09:32:57;;;;;;;3.97;2.10;;;;;;;;;;5040062;28;20041;-59
2022/04/16 09:35:31;;;;;;;4.05;2.00;;;;;;;;;;5039548;28;20630;-61
2022/04/16 09:37:58;;;;;;;4.03;1.88;;;;;;;;;;5039982;28;20036;-61
2022/04/16 09:40:28;;;;;;;9.27;2.60;;;;;;;;;;5041352;28;20041;-58
2022/04/16 09:42:55;;;;;;;3.65;2.00;;;;;;;;;;5040766;28;20124;-58
2022/04/16 09:45:22;;;;;;;4.97;2.00;;;;;;;;;;5038672;28;20083;-58
2022/04/16 09:47:50;;;;;;;5.82;2.20;;;;;;;;;;5040228;28;20036;-57
2022/04/16 09:50:21;;;;;;;4.18;2.40;;;;;;;;;;5039131;28;20078;-59
2022/04/16 09:52:51;;;;;;;4.10;1.98;;;;;;;;;;5039720;28;20123;-59
2022/04/16 09:55:20;;;;;;;4.20;2.13;;;;;;;;;;5041577;28;20041;-60
2022/04/16 09:57:50;;;;;;;6.85;1.83;;;;;;;;;;5040270;28;20057;-61
2022/04/16 10:00:17;;;;;;;4.93;2.42;;;;;;;;;;5040602;28;20052;-58
2022/04/16 10:02:44;;;;;;;8.25;2.55;;;;;;;;;;5037690;28;20044;-60
2022/04/16 10:05:11;;;;;;;5.22;2.72;;;;;;;;;;5019294;28;20045;-60
2022/04/16 10:07:38;;;;;;;5.28;2.63;;;;;;;;;;5040757;28;20033;-59
2022/04/16 10:10:17;;;;;;;4.05;2.13;;;;;;;;;;5044202;28;20091;-60
2022/04/16 10:13:01;;;;;;;5.10;1.98;;;;;;;;;;5042545;28;20041;-60
2022/04/16 10:15:39;;;;;;;6.03;2.25;;;;;;;;;;5044365;28;20037;-59
2022/04/16 10:18:06;;;;;;;5.32;2.95;;;;;;;;;;5046047;28;20064;-59
2022/04/16 10:20:33;;;;;;;6.00;2.90;;;;;;;;;;5042571;28;20041;-61
2022/04/16 10:23:05;;;;;;;5.53;3.38;;;;;;;;;;5043037;28;20046;-60
2022/04/16 10:25:42;;;;;;;5.93;2.83;;;;;;;;;;5042942;28;20052;-59
2022/04/16 10:28:09;;;;;;;22.80;3.85;;;;;;;;;;5036038;28;20099;-60
2022/04/16 10:30:38;;;;;;;6.18;3.00;;;;;;;;;;5045304;28;20037;-60
2022/04/16 10:33:18;;;;;;;5.75;2.75;;;;;;;;;;5023894;28;20112;-60
2022/04/16 10:35:51;;;;;;;8.45;3.28;;;;;;;;;;5043945;28;20052;-59
2022/04/16 10:38:37;;;;;;;9.52;3.55;;;;;;;;;;5047238;28;20099;-60
2022/04/16 10:41:10;;;;;;;12.05;3.10;;;;;;;;;;5043073;28;20040;-58
2022/04/16 10:43:37;;;;;;;5.88;2.83;;;;;;;;;;5042416;28;20048;-59
2022/04/16 10:46:04;;;;;;;7.00;3.35;;;;;;;;;;5042947;28;20390;-58
2022/04/16 10:48:35;;;;;;;7.30;4.00;;;;;;;;;;5043194;28;20028;-58
2022/04/16 10:51:03;;;;;;;5.32;3.17;;;;;;;;;;5044004;28;20061;-58
2022/04/16 10:53:32;;;;;;;7.03;3.50;;;;;;;;;;5041875;28;20131;-59
2022/04/16 10:56:07;;;;;;;4.38;2.35;;;;;;;;;;5044822;28;20037;-59
2022/04/16 10:58:34;;;;;;;8.38;4.03;;;;;;;;;;5044331;28;20044;-60
2022/04/16 11:01:08;;;;;;;7.43;3.75;;;;;;;;;;5045629;28;20416;-59
2022/04/16 11:03:42;;;;;;;6.07;3.22;;;;;;;;;;5043789;28;20033;-58
2022/04/16 11:06:09;;;;;;;6.57;3.42;;;;;;;;;;5044202;28;20039;-59
2022/04/16 11:08:36;;;;;;;5.88;3.35;;;;;;;;;;5043017;28;20040;-61
2022/04/16 11:11:02;;;;;;;4.95;2.92;;;;;;;;;;5044666;28;20049;-59
2022/04/16 11:13:33;;;;;;;5.88;3.47;;;;;;;;;;5043059;28;20052;-61
2022/04/16 11:16:00;;;;;;;5.65;3.33;;;;;;;;;;5041807;28;20040;-59
2022/04/16 11:18:28;;;;;;;10.43;3.70;;;;;;;;;;5040623;28;20098;-60
2022/04/16 11:20:58;;;;;;;7.68;3.90;;;;;;;;;;5042223;28;20072;-58
2022/04/16 11:23:28;;;;;;;8.50;4.25;;;;;;;;;;5042379;28;20635;-58
2022/04/16 11:34:17;;;;;;;6.32;3.83;;;;;;;;;;5041567;28;20124;-59
2022/04/16 11:36:44;;;;;;;6.45;3.35;;;;;;;;;;5041313;28;20041;-60
2022/04/16 11:39:18;;;;;;;4.82;2.90;;;;;;;;;;5042006;28;20101;-59
2022/04/16 11:41:51;;;;;;;4.25;2.90;;;;;;;;;;5040785;28;20056;-60
2022/04/16 11:44:28;;;;;;;8.77;4.35;;;;;;;;;;5041966;28;20123;-60
2022/04/16 11:46:55;;;;;;;6.32;3.40;;;;;;;;;;5042438;28;20762;-60
2022/04/16 11:49:22;;;;;;;6.47;3.85;;;;;;;;;;5041712;28;20459;-59
2022/04/16 11:51:49;;;;;;;5.40;2.88;;;;;;;;;;5040888;28;20067;-60
2022/04/16 11:54:27;;;;;;;26.33;3.97;;;;;;;;;;5023254;28;20114;-58
2022/04/16 11:56:55;;;;;;;5.82;3.20;;;;;;;;;;5041737;28;20133;-57
2022/04/16 11:59:25;;;;;;;9.88;3.45;;;;;;;;;;5042044;28;20189;-60
2022/04/16 12:01:58;;;;;;;5.93;3.83;;;;;;;;;;5040011;28;20052;-58
2022/04/16 12:04:35;;;;;;;4.88;2.97;;;;;;;;;;5042438;28;20133;-59
2022/04/16 12:07:02;;;;;;;11.50;4.30;;;;;;;;;;5041196;28;20587;-59
2022/04/16 12:09:33;;;;;;;6.97;3.92;;;;;;;;;;5040899;28;20053;-59
2022/04/16 12:12:05;;;;;;;11.15;4.32;;;;;;;;;;5037066;28;20082;-59
2022/04/16 12:14:32;;;;;;;12.90;4.80;;;;;;;;;;5040600;28;20032;-58
2022/04/16 12:17:02;;;;;;;25.15;4.68;;;;;;;;;;5041453;28;20052;-60
2022/04/16 12:19:34;;;;;;;6.75;3.50;;;;;;;;;;5039995;28;20052;-57
2022/04/16 12:22:01;;;;;;;7.03;4.03;;;;;;;;;;5042782;28;20497;-60
2022/04/16 12:24:31;;;;;;;6.47;4.13;;;;;;;;;;5040188;28;20801;-60
2022/04/16 12:26:57;;;;;;;8.35;4.85;;;;;;;;;;5041759;28;20210;-60
2022/04/16 12:29:28;;;;;;;7.88;4.32;;;;;;;;;;5017239;28;20229;-59
2022/04/16 12:31:58;;;;;;;6.85;4.22;;;;;;;;;;5041237;28;20175;-59
2022/04/16 12:34:25;;;;;;;8.20;3.90;;;;;;;;;;5040974;28;20048;-59
2022/04/16 12:36:53;;;;;;;11.63;4.85;;;;;;;;;;5041991;28;20033;-59
2022/04/16 12:39:20;;;;;;;6.32;3.88;;;;;;;;;;5039358;28;20052;-58
2022/04/16 12:41:47;;;;;;;6.90;3.78;;;;;;;;;;5041374;28;21133;-57
2022/04/16 12:44:13;;;;;;;7.40;3.85;;;;;;;;;;5039718;28;20040;-60
2022/04/16 12:46:40;;;;;;;10.15;4.18;;;;;;;;;;5020860;28;20040;-59
2022/04/16 12:49:07;;;;;;;9.48;5.75;;;;;;;;;;5039289;28;20040;-56
2022/04/16 12:51:33;;;;;;;9.70;4.45;;;;;;;;;;5036844;28;20467;-59
2022/04/16 12:54:01;;;;;;;9.52;4.80;;;;;;;;;;5040186;28;20049;-58
2022/04/16 12:56:27;;;;;;;10.07;4.18;;;;;;;;;;5043705;28;20138;-59
2022/04/16 12:58:54;;;;;;;6.57;3.95;;;;;;;;;;5044103;28;20106;-59
2022/04/16 13:01:21;;;;;;;7.80;4.35;;;;;;;;;;5042108;28;20076;-60
2022/04/16 13:03:47;;;;;;;6.50;3.45;;;;;;;;;;5043941;28;20045;-59
2022/04/16 13:06:14;;;;;;;9.00;4.70;;;;;;;;;;5042736;28;20120;-60
2022/04/16 13:08:41;;;;;;;10.73;5.35;;;;;;;;;;5040350;28;20558;-60
2022/04/16 13:11:09;;;;;;;15.90;5.90;;;;;;;;;;5040778;28;20567;-59
2022/04/16 13:13:36;;;;;;;8.13;4.03;;;;;;;;;;5040514;28;20043;-58
2022/04/16 13:16:03;;;;;;;9.00;4.82;;;;;;;;;;5041664;28;20051;-58
2022/04/16 13:18:29;;;;;;;7.72;4.45;;;;;;;;;;5041725;28;20056;-62
2022/04/16 13:20:56;;;;;;;15.60;7.00;;;;;;;;;;5043491;28;20048;-60
2022/04/16 13:23:23;;;;;;;5.97;3.85;;;;;;;;;;5042607;28;20039;-57
2022/04/16 13:25:51;;;;;;;10.43;5.82;;;;;;;;;;5042361;28;20079;-59
2022/04/16 13:28:17;;;;;;;7.00;3.67;;;;;;;;;;5042389;28;20040;-59
2022/04/16 13:30:44;;;;;;;9.48;4.80;;;;;;;;;;5039417;28;20048;-56
2022/04/16 13:33:11;;;;;;;8.48;5.13;;;;;;;;;;5042021;28;20037;-54
2022/04/16 13:35:37;;;;;;;12.52;5.97;;;;;;;;;;5041276;28;20045;-59
2022/04/16 13:38:04;;;;;;;15.88;6.20;;;;;;;;;;5041852;28;20063;-60
2022/04/16 13:43:16;;;;;;;9.38;5.95;;;;;;;;;;5040768;28;20048;-58
2022/04/16 13:45:43;;;;;;;10.75;6.15;;;;;;;;;;5041765;28;20842;-59
2022/04/16 13:48:11;;;;;;;9.63;5.80;;;;;;;;;;5040474;28;20037;-56
2022/04/16 13:50:38;;;;;;;13.02;6.30;;;;;;;;;;5039948;28;20701;-59
2022/04/16 13:53:05;;;;;;;20.50;7.68;;;;;;;;;;5040201;28;20159;-59
2022/04/16 13:55:31;;;;;;;10.75;6.35;;;;;;;;;;5040015;28;20048;-58
2022/04/16 13:57:58;;;;;;;9.10;6.20;;;;;;;;;;5042922;28;20060;-57
2022/04/16 14:00:26;;;;;;;11.38;5.75;;;;;;;;;;5041402;28;20055;-58
2022/04/16 14:02:53;;;;;;;11.77;6.20;;;;;;;;;;5042687;28;20040;-56
2022/04/16 14:08:05;;;;;;;14.88;7.00;;;;;;;;;;5042246;28;20068;-59
2022/04/16 14:10:31;;;;;;;12.43;6.78;;;;;;;;;;5039089;28;20040;-60
2022/04/16 14:12:58;;;;;;;18.58;8.43;;;;;;;;;;5041316;28;20595;-58
2022/04/16 14:15:25;;;;;;;14.00;7.40;;;;;;;;;;5041009;28;20056;-61
2022/04/16 14:17:52;;;;;;;8.95;5.60;;;;;;;;;;5040760;28;20048;-59
2022/04/16 14:20:19;;;;;;;13.10;6.63;;;;;;;;;;5039448;28;20049;-58
2022/04/16 14:22:46;;;;;;;10.38;6.45;;;;;;;;;;5018765;28;20604;-58
2022/04/16 14:25:14;;;;;;;11.70;7.13;;;;;;;;;;5039273;28;20041;-60
2022/04/16 14:27:41;;;;;;;12.15;6.63;;;;;;;;;;5039476;28;20159;-60
2022/04/16 14:30:08;;;;;;;11.70;6.15;;;;;;;;;;5039418;28;20041;-58
2022/04/16 14:32:35;;;;;;;13.70;7.53;;;;;;;;;;5040187;28;20033;-58
2022/04/16 14:35:02;;;;;;;14.65;7.85;;;;;;;;;;5019551;28;20036;-60
2022/04/16 14:37:29;;;;;;;15.23;8.32;;;;;;;;;;5039954;28;20047;-60
2022/04/16 14:39:56;;;;;;;13.82;7.13;;;;;;;;;;5039974;28;20452;-59
2022/04/16 14:42:22;;;;;;;12.90;7.95;;;;;;;;;;5018206;28;20040;-60
2022/04/16 14:44:55;;;;;;;13.35;8.20;;;;;;;;;;5040105;28;20104;-57
2022/04/16 14:47:21;;;;;;;18.75;7.75;;;;;;;;;;5039398;28;20064;-59
2022/04/16 14:49:48;;;;;;;14.20;8.50;;;;;;;;;;5039038;28;20417;-61
2022/04/16 14:52:15;;;;;;;19.50;9.00;;;;;;;;;;5038953;28;20120;-60
2022/04/16 14:54:41;;;;;;;15.35;7.70;;;;;;;;;;5040473;28;20045;-60
2022/04/16 14:57:08;;;;;;;18.25;8.52;;;;;;;;;;5042152;28;20041;-60
2022/04/16 14:59:35;;;;;;;13.95;8.02;;;;;;;;;;5042393;28;20048;-59
2022/04/16 15:02:02;;;;;;;14.50;7.05;;;;;;;;;;5041010;28;20049;-60
2022/04/16 15:04:29;;;;;;;11.77;7.70;;;;;;;;;;5042592;28;20131;-60
2022/04/16 15:06:56;;;;;;;16.00;6.57;;;;;;;;;;5043439;28;20171;-60
2022/04/16 15:09:23;;;;;;;10.43;6.68;;;;;;;;;;5041814;28;20063;-60